Time;durP1;ratioP1;P1;durP2;ratioP2;P2;SDS_P1;SDS_P2;PMS_P1;PMS_P2;Temp;Humidity;BMP_temperature;BMP_pressure;BME280_temperature;BME280_humidity;BME280_pressure;Samples;Min_cycle;Max_cycle;Signal;HPM_P1;HPM_P2
2021/04/10 00:00:55;;;;;;;12.52;1.60;;;;;;;;;;5008605;28;20018;-50
2021/04/10 00:03:22;;;;;;;11.90;2.25;;;;;;;;;;5010772;28;20026;-52
2021/04/10 00:05:49;;;;;;;11.23;2.13;;;;;;;;;;5011705;28;20044;-48
2021/04/10 00:08:16;;;;;;;21.45;1.98;;;;;;;;;;4999067;28;20022;-49
2021/04/10 00:10:43;;;;;;;11.93;2.47;;;;;;;;;;4994735;28;20034;-47
2021/04/10 00:13:10;;;;;;;8.82;2.20;;;;;;;;;;4992684;28;20034;-48
2021/04/10 00:15:37;;;;;;;14.02;2.30;;;;;;;;;;4995085;28;20022;-49
2021/04/10 00:18:04;;;;;;;18.13;2.42;;;;;;;;;;4993799;28;20018;-62
2021/04/10 00:20:31;;;;;;;19.55;2.38;;;;;;;;;;4994516;28;20069;-57
2021/04/10 00:22:58;;;;;;;21.77;2.10;;;;;;;;;;5007464;28;20018;-47
2021/04/10 00:25:25;;;;;;;9.25;2.05;;;;;;;;;;5003474;28;20038;-42
2021/04/10 00:27:52;;;;;;;14.40;2.00;;;;;;;;;;5010209;28;20022;-47
2021/04/10 00:30:20;;;;;;;14.05;2.40;;;;;;;;;;5002347;28;20025;-51
2021/04/10 00:32:47;;;;;;;21.85;2.88;;;;;;;;;;5002971;28;20113;-49
2021/04/10 00:35:14;;;;;;;21.27;2.45;;;;;;;;;;5001788;28;20056;-48
2021/04/10 00:37:41;;;;;;;14.63;2.88;;;;;;;;;;5012020;28;20521;-50
2021/04/10 00:40:09;;;;;;;10.38;2.35;;;;;;;;;;5006419;28;20026;-47
2021/04/10 00:42:37;;;;;;;14.63;2.08;;;;;;;;;;4994286;28;20042;-46
2021/04/10 00:45:09;;;;;;;13.20;2.30;;;;;;;;;;4993955;28;20476;-47
2021/04/10 00:47:36;;;;;;;16.92;2.88;;;;;;;;;;4992658;28;20085;-48
2021/04/10 00:50:04;;;;;;;15.60;3.05;;;;;;;;;;4995115;28;20415;-50
2021/04/10 00:52:31;;;;;;;9.45;2.17;;;;;;;;;;4993645;28;20034;-47
2021/04/10 00:54:58;;;;;;;7.15;2.10;;;;;;;;;;4992149;28;20025;-47
2021/04/10 00:57:25;;;;;;;15.35;2.60;;;;;;;;;;4993905;28;20045;-50
2021/04/10 00:59:52;;;;;;;11.18;2.53;;;;;;;;;;4995376;28;21408;-49
2021/04/10 01:02:20;;;;;;;7.35;2.00;;;;;;;;;;4993431;28;20027;-52
2021/04/10 01:04:47;;;;;;;14.27;2.60;;;;;;;;;;4993586;28;20022;-50
2021/04/10 01:07:14;;;;;;;10.65;2.03;;;;;;;;;;5011749;28;20472;-55
2021/04/10 01:09:42;;;;;;;11.85;2.25;;;;;;;;;;5011780;28;20076;-48
2021/04/10 01:12:16;;;;;;;13.20;2.30;;;;;;;;;;5011522;28;20041;-53
2021/04/10 01:14:49;;;;;;;12.40;2.42;;;;;;;;;;5011833;28;20032;-52
2021/04/10 01:17:22;;;;;;;11.35;2.03;;;;;;;;;;5009498;28;20037;-49
2021/04/10 01:20:00;;;;;;;11.90;2.13;;;;;;;;;;5009074;28;20022;-57
2021/04/10 01:22:45;;;;;;;8.18;2.08;;;;;;;;;;5006182;28;20022;-57
2021/04/10 01:25:18;;;;;;;7.68;2.20;;;;;;;;;;4993449;28;20030;-52
2021/04/10 01:27:47;;;;;;;11.30;2.10;;;;;;;;;;4994272;28;20026;-56
2021/04/10 01:30:14;;;;;;;9.70;2.13;;;;;;;;;;4992248;28;20041;-54
2021/04/10 01:32:45;;;;;;;10.98;2.42;;;;;;;;;;4994674;28;20046;-57
2021/04/10 01:35:16;;;;;;;9.00;2.70;;;;;;;;;;5001518;28;20093;-55
2021/04/10 01:37:46;;;;;;;5.63;2.13;;;;;;;;;;5008443;28;20405;-57
2021/04/10 01:40:14;;;;;;;9.02;2.20;;;;;;;;;;4996397;28;20010;-55
2021/04/10 01:42:41;;;;;;;6.35;2.20;;;;;;;;;;4997424;28;20360;-54
2021/04/10 01:45:09;;;;;;;7.93;2.42;;;;;;;;;;5015050;28;20018;-56
2021/04/10 01:47:37;;;;;;;11.60;2.65;;;;;;;;;;5015098;28;20382;-56
2021/04/10 01:50:07;;;;;;;7.75;2.10;;;;;;;;;;5015126;28;20022;-53
2021/04/10 01:52:34;;;;;;;5.05;1.98;;;;;;;;;;5014616;28;20034;-54
2021/04/10 01:55:01;;;;;;;9.73;2.20;;;;;;;;;;5005816;28;20053;-60
2021/04/10 01:57:29;;;;;;;11.65;2.17;;;;;;;;;;4995593;28;20022;-56
2021/04/10 01:59:57;;;;;;;8.40;2.25;;;;;;;;;;5010428;28;20033;-52
2021/04/10 02:02:25;;;;;;;8.15;2.35;;;;;;;;;;5014683;28;20037;-56
2021/04/10 02:04:53;;;;;;;8.02;2.83;;;;;;;;;;5013284;28;20377;-57
2021/04/10 02:07:26;;;;;;;5.68;2.05;;;;;;;;;;5009079;28;20030;-56
2021/04/10 02:09:54;;;;;;;7.93;2.08;;;;;;;;;;4995076;28;20482;-55
2021/04/10 02:12:23;;;;;;;5.65;1.88;;;;;;;;;;4994608;28;20406;-54
2021/04/10 02:14:50;;;;;;;4.40;2.20;;;;;;;;;;5007470;28;20141;-49
2021/04/10 02:17:18;;;;;;;12.70;2.25;;;;;;;;;;4996746;28;20076;-53
2021/04/10 02:19:46;;;;;;;6.60;2.30;;;;;;;;;;5012778;28;20026;-53
2021/04/10 02:22:15;;;;;;;6.93;1.95;;;;;;;;;;5007181;28;20038;-53
2021/04/10 02:24:42;;;;;;;9.88;1.88;;;;;;;;;;5009929;28;20065;-55
2021/04/10 02:27:09;;;;;;;5.82;2.83;;;;;;;;;;4995149;28;20561;-53
2021/04/10 02:29:36;;;;;;;11.00;1.95;;;;;;;;;;4995657;28;20026;-53
2021/04/10 02:32:10;;;;;;;7.97;2.72;;;;;;;;;;4994313;28;20429;-51
2021/04/10 02:34:43;;;;;;;8.68;2.08;;;;;;;;;;4989657;28;20026;-53
2021/04/10 02:37:10;;;;;;;5.63;1.90;;;;;;;;;;4996823;28;20022;-52
2021/04/10 02:39:38;;;;;;;7.72;2.15;;;;;;;;;;4995213;28;20018;-50
2021/04/10 02:42:06;;;;;;;8.77;1.70;;;;;;;;;;4999498;28;20022;-51
2021/04/10 02:44:38;;;;;;;10.48;1.92;;;;;;;;;;5011157;28;20360;-51
2021/04/10 02:47:07;;;;;;;8.07;2.43;;;;;;;;;;5012390;28;20493;-54
2021/04/10 02:49:36;;;;;;;2.97;1.52;;;;;;;;;;5013658;28;20033;-54
2021/04/10 02:52:04;;;;;;;7.65;2.10;;;;;;;;;;5013841;28;20467;-54
2021/04/10 02:54:37;;;;;;;5.72;1.88;;;;;;;;;;5013694;28;20029;-53
2021/04/10 02:57:12;;;;;;;8.63;2.38;;;;;;;;;;5014208;28;20106;-53
2021/04/10 02:59:44;;;;;;;6.60;1.83;;;;;;;;;;5013654;28;20029;-50
2021/04/10 03:02:11;;;;;;;6.95;2.35;;;;;;;;;;5014147;28;20032;-52
2021/04/10 03:04:40;;;;;;;9.32;2.50;;;;;;;;;;5014046;28;20022;-54
2021/04/10 03:07:09;;;;;;;6.30;1.70;;;;;;;;;;5014146;28;20052;-54
2021/04/10 03:09:39;;;;;;;4.25;2.08;;;;;;;;;;5013910;28;20045;-54
2021/04/10 03:12:07;;;;;;;2.60;1.50;;;;;;;;;;5013854;28;20034;-54
2021/04/10 03:14:36;;;;;;;3.05;1.63;;;;;;;;;;5014111;28;20026;-54
2021/04/10 03:17:03;;;;;;;7.82;1.98;;;;;;;;;;5013872;28;20018;-53
2021/04/10 03:19:31;;;;;;;4.50;1.90;;;;;;;;;;5013640;28;20589;-52
2021/04/10 03:21:59;;;;;;;7.18;2.20;;;;;;;;;;5013570;28;20041;-51
2021/04/10 03:24:26;;;;;;;8.85;2.30;;;;;;;;;;5013781;28;20092;-49
2021/04/10 03:26:53;;;;;;;3.72;1.70;;;;;;;;;;5013788;28;20018;-53
2021/04/10 03:29:20;;;;;;;3.72;1.95;;;;;;;;;;5013823;28;20037;-52
2021/04/10 03:31:48;;;;;;;3.17;1.70;;;;;;;;;;5013856;28;20033;-53
2021/04/10 03:34:15;;;;;;;5.43;2.17;;;;;;;;;;5013705;28;20050;-53
2021/04/10 03:36:42;;;;;;;3.95;1.75;;;;;;;;;;5013744;28;20072;-49
2021/04/10 03:39:10;;;;;;;4.78;1.65;;;;;;;;;;5013809;28;20485;-53
2021/04/10 03:41:37;;;;;;;3.53;1.88;;;;;;;;;;5013579;28;20030;-51
2021/04/10 03:44:04;;;;;;;3.53;1.83;;;;;;;;;;5013554;28;20026;-50
2021/04/10 03:46:31;;;;;;;5.32;2.00;;;;;;;;;;5013715;28;20100;-52
2021/04/10 03:48:58;;;;;;;7.60;1.77;;;;;;;;;;5013354;28;20093;-50
2021/04/10 03:51:25;;;;;;;12.48;2.15;;;;;;;;;;5013387;28;20041;-51
2021/04/10 03:53:52;;;;;;;4.30;1.70;;;;;;;;;;5013592;28;20058;-52
2021/04/10 03:56:19;;;;;;;7.05;2.05;;;;;;;;;;5013396;28;20022;-52
2021/04/10 03:58:47;;;;;;;5.03;1.92;;;;;;;;;;5013152;28;20026;-54
2021/04/10 04:01:14;;;;;;;4.35;1.58;;;;;;;;;;5013043;28;20109;-51
2021/04/10 04:03:41;;;;;;;4.78;1.67;;;;;;;;;;5011916;28;20478;-51
2021/04/10 04:06:08;;;;;;;3.13;1.70;;;;;;;;;;5013302;28;20026;-54
2021/04/10 04:08:35;;;;;;;4.15;1.60;;;;;;;;;;5013395;28;20075;-50
2021/04/10 04:11:02;;;;;;;5.90;1.73;;;;;;;;;;5013094;28;20026;-53
2021/04/10 04:13:29;;;;;;;4.05;1.85;;;;;;;;;;5013108;28;20486;-53
2021/04/10 04:15:56;;;;;;;3.97;1.65;;;;;;;;;;5013220;28;20029;-53
2021/04/10 04:18:24;;;;;;;4.50;1.73;;;;;;;;;;5013001;28;20084;-53
2021/04/10 04:20:51;;;;;;;3.20;1.63;;;;;;;;;;5012957;28;20049;-54
2021/04/10 04:23:18;;;;;;;3.88;1.45;;;;;;;;;;5013056;28;20096;-54
2021/04/10 04:25:45;;;;;;;4.93;1.70;;;;;;;;;;5012945;28;20033;-52
2021/04/10 04:28:12;;;;;;;2.00;1.40;;;;;;;;;;5012917;28;20127;-53
2021/04/10 04:30:39;;;;;;;4.68;1.60;;;;;;;;;;5013035;28;20022;-50
2021/04/10 04:33:06;;;;;;;3.17;1.45;;;;;;;;;;5012844;28;20034;-52
2021/04/10 04:35:33;;;;;;;3.50;1.65;;;;;;;;;;5011757;28;20413;-52
2021/04/10 04:38:00;;;;;;;3.03;1.40;;;;;;;;;;5013148;28;20026;-51
2021/04/10 04:40:27;;;;;;;4.68;1.40;;;;;;;;;;5012776;28;20022;-49
2021/04/10 04:42:54;;;;;;;3.45;1.30;;;;;;;;;;5012933;28;20048;-51
2021/04/10 04:45:21;;;;;;;3.15;1.42;;;;;;;;;;5012969;28;20438;-54
2021/04/10 04:47:48;;;;;;;4.05;2.03;;;;;;;;;;5012620;28;20030;-55
2021/04/10 04:50:15;;;;;;;2.45;1.25;;;;;;;;;;5012795;28;20053;-57
2021/04/10 04:52:42;;;;;;;2.63;1.75;;;;;;;;;;5012908;28;20030;-55
2021/04/10 04:55:10;;;;;;;2.72;1.13;;;;;;;;;;5012790;28;20022;-53
2021/04/10 04:57:37;;;;;;;3.80;1.42;;;;;;;;;;5012743;28;20026;-55
2021/04/10 05:00:05;;;;;;;2.53;1.10;;;;;;;;;;5012907;28;20029;-53
2021/04/10 05:02:32;;;;;;;3.30;1.20;;;;;;;;;;5012728;28;20068;-54
2021/04/10 05:04:59;;;;;;;3.60;1.60;;;;;;;;;;5011457;28;20497;-53
2021/04/10 05:07:26;;;;;;;4.82;1.20;;;;;;;;;;5012806;28;20030;-53
2021/04/10 05:09:53;;;;;;;2.47;1.20;;;;;;;;;;5012725;28;20030;-53
2021/04/10 05:12:20;;;;;;;3.05;1.40;;;;;;;;;;5015819;28;20033;-53
2021/04/10 05:14:47;;;;;;;3.03;1.17;;;;;;;;;;5016324;28;20049;-54
2021/04/10 05:17:14;;;;;;;4.13;1.48;;;;;;;;;;5016317;28;20029;-54
2021/04/10 05:19:41;;;;;;;3.13;1.35;;;;;;;;;;5016127;28;20061;-53
2021/04/10 05:22:08;;;;;;;2.97;1.25;;;;;;;;;;5016091;28;20393;-52
2021/04/10 05:24:35;;;;;;;2.42;1.10;;;;;;;;;;5016187;28;20054;-50
2021/04/10 05:27:02;;;;;;;2.83;1.27;;;;;;;;;;5016111;28;20105;-51
2021/04/10 05:29:29;;;;;;;1.83;1.08;;;;;;;;;;5016002;28;20057;-53
2021/04/10 05:31:56;;;;;;;3.80;1.30;;;;;;;;;;5016006;28;20030;-52
2021/04/10 05:34:23;;;;;;;3.40;1.50;;;;;;;;;;5015968;28;20425;-52
2021/04/10 05:36:50;;;;;;;2.45;1.10;;;;;;;;;;5016223;28;20398;-52
2021/04/10 05:39:17;;;;;;;5.15;1.63;;;;;;;;;;5015907;28;20022;-50
2021/04/10 05:41:44;;;;;;;2.65;1.20;;;;;;;;;;5015822;28;20480;-52
2021/04/10 05:44:11;;;;;;;2.33;1.10;;;;;;;;;;5015886;28;20477;-53
2021/04/10 05:46:38;;;;;;;3.53;1.23;;;;;;;;;;5015805;28;20144;-52
2021/04/10 05:49:05;;;;;;;1.25;0.90;;;;;;;;;;5015643;28;20033;-52
2021/04/10 05:51:32;;;;;;;3.00;0.88;;;;;;;;;;5015610;28;20501;-49
2021/04/10 05:53:59;;;;;;;4.15;1.10;;;;;;;;;;5015795;28;20072;-50
2021/04/10 05:56:26;;;;;;;1.52;0.90;;;;;;;;;;5015596;28;20102;-54
2021/04/10 05:58:53;;;;;;;1.88;1.00;;;;;;;;;;5015488;28;20022;-53
2021/04/10 06:01:20;;;;;;;6.10;1.30;;;;;;;;;;5015473;28;20041;-51
2021/04/10 06:03:47;;;;;;;1.73;0.80;;;;;;;;;;5015465;28;20029;-50
2021/04/10 06:06:14;;;;;;;2.28;1.25;;;;;;;;;;5015352;28;20474;-54
2021/04/10 06:08:41;;;;;;;2.40;1.23;;;;;;;;;;5015516;28;20030;-51
2021/04/10 06:11:08;;;;;;;2.03;1.02;;;;;;;;;;5015138;28;20105;-52
2021/04/10 06:13:35;;;;;;;2.90;1.08;;;;;;;;;;5015292;28;20030;-51
2021/04/10 06:16:05;;;;;;;2.50;0.93;;;;;;;;;;5015136;28;20029;-48
2021/04/10 06:18:32;;;;;;;3.38;0.88;;;;;;;;;;5015023;28;20110;-50
2021/04/10 06:20:59;;;;;;;3.88;1.05;;;;;;;;;;5015187;28;20478;-50
2021/04/10 06:23:26;;;;;;;2.22;1.10;;;;;;;;;;5014305;28;20045;-54
2021/04/10 06:25:53;;;;;;;2.08;0.80;;;;;;;;;;5014973;28;20034;-49
2021/04/10 06:28:20;;;;;;;1.50;1.02;;;;;;;;;;5014887;28;20427;-50
2021/04/10 06:30:47;;;;;;;2.25;0.90;;;;;;;;;;5014800;28;20025;-54
2021/04/10 06:33:14;;;;;;;1.33;0.95;;;;;;;;;;5014925;28;20487;-51
2021/04/10 06:35:41;;;;;;;2.13;0.90;;;;;;;;;;5014853;28;20033;-52
2021/04/10 06:38:08;;;;;;;0.82;0.80;;;;;;;;;;5014954;28;20490;-51
2021/04/10 06:40:35;;;;;;;2.83;0.77;;;;;;;;;;5014742;28;20025;-50
2021/04/10 06:43:03;;;;;;;1.83;1.10;;;;;;;;;;5014579;28;20028;-50
2021/04/10 06:45:30;;;;;;;2.05;1.08;;;;;;;;;;5014764;28;20030;-49
2021/04/10 06:47:58;;;;;;;2.88;0.85;;;;;;;;;;5014775;28;20105;-53
2021/04/10 06:50:25;;;;;;;3.45;1.23;;;;;;;;;;5014534;28;20029;-52
2021/04/10 06:52:52;;;;;;;2.13;0.90;;;;;;;;;;5014316;28;20473;-50
2021/04/10 06:55:20;;;;;;;1.98;0.80;;;;;;;;;;5014702;28;20098;-50
2021/04/10 06:57:56;;;;;;;2.00;0.90;;;;;;;;;;5014402;28;20026;-50
2021/04/10 07:00:25;;;;;;;2.13;0.90;;;;;;;;;;5014537;28;20366;-53
2021/04/10 07:02:52;;;;;;;3.13;0.80;;;;;;;;;;5014440;28;20026;-51
2021/04/10 07:05:21;;;;;;;1.88;0.80;;;;;;;;;;5014336;28;20053;-50
2021/04/10 07:07:48;;;;;;;1.90;0.70;;;;;;;;;;5014264;28;20030;-50
2021/04/10 07:10:15;;;;;;;2.20;0.70;;;;;;;;;;5014276;28;20034;-50
2021/04/10 07:12:42;;;;;;;1.30;0.70;;;;;;;;;;5014056;28;20045;-51
2021/04/10 07:15:11;;;;;;;1.85;0.82;;;;;;;;;;5014078;28;20049;-50
2021/04/10 07:17:38;;;;;;;1.35;0.80;;;;;;;;;;5014097;28;20026;-53
2021/04/10 07:20:25;;;;;;;2.38;0.88;;;;;;;;;;5014143;28;20018;-51
2021/04/10 07:23:02;;;;;;;1.73;0.80;;;;;;;;;;5013936;28;20029;-52
2021/04/10 07:25:31;;;;;;;2.28;1.05;;;;;;;;;;5013968;28;20038;-53
2021/04/10 07:28:17;;;;;;;2.10;0.80;;;;;;;;;;5013879;28;20026;-53
2021/04/10 07:30:55;;;;;;;2.20;0.93;;;;;;;;;;5013616;28;20042;-54
2021/04/10 07:33:23;;;;;;;1.73;0.70;;;;;;;;;;5013627;28;20486;-52
2021/04/10 07:35:50;;;;;;;1.60;0.75;;;;;;;;;;5012977;28;20061;-53
2021/04/10 07:38:33;;;;;;;1.95;0.95;;;;;;;;;;5013678;28;20107;-53
2021/04/10 07:41:02;;;;;;;2.65;1.08;;;;;;;;;;5013743;28;20018;-54
2021/04/10 07:43:30;;;;;;;2.15;0.80;;;;;;;;;;5013474;28;20532;-52
2021/04/10 07:46:15;;;;;;;1.33;0.75;;;;;;;;;;5013664;28;20516;-54
2021/04/10 07:49:02;;;;;;;1.25;0.80;;;;;;;;;;5013611;28;20033;-53
2021/04/10 07:51:30;;;;;;;1.35;0.70;;;;;;;;;;5009765;28;20049;-49
2021/04/10 07:53:58;;;;;;;1.80;0.70;;;;;;;;;;5013691;28;20034;-53
2021/04/10 07:56:25;;;;;;;2.55;0.90;;;;;;;;;;5013346;28;20383;-54
2021/04/10 07:59:01;;;;;;;2.00;0.90;;;;;;;;;;5013123;28;20029;-54
2021/04/10 08:01:28;;;;;;;3.45;0.95;;;;;;;;;;5013531;28;20026;-55
2021/04/10 08:03:57;;;;;;;1.80;1.00;;;;;;;;;;5013338;28;20018;-53
2021/04/10 08:06:24;;;;;;;1.35;0.80;;;;;;;;;;5013300;28;20060;-51
2021/04/10 08:08:54;;;;;;;2.13;0.95;;;;;;;;;;5013278;28;20026;-54
2021/04/10 08:11:41;;;;;;;1.33;0.82;;;;;;;;;;5013146;28;20033;-54
2021/04/10 08:14:15;;;;;;;1.48;0.90;;;;;;;;;;5013169;28;20048;-53
2021/04/10 08:16:43;;;;;;;4.85;0.70;;;;;;;;;;5013141;28;20029;-51
2021/04/10 08:19:10;;;;;;;1.83;0.82;;;;;;;;;;5012915;28;20026;-52
2021/04/10 08:21:39;;;;;;;2.25;0.90;;;;;;;;;;5013116;28;20393;-50
2021/04/10 08:24:26;;;;;;;1.60;0.98;;;;;;;;;;5012666;28;20040;-53
2021/04/10 08:26:57;;;;;;;1.90;0.63;;;;;;;;;;5011708;28;20393;-50
2021/04/10 08:29:24;;;;;;;1.45;0.80;;;;;;;;;;5012939;28;20026;-53
2021/04/10 08:31:52;;;;;;;2.67;0.90;;;;;;;;;;5012812;28;20068;-53
2021/04/10 08:34:19;;;;;;;1.27;0.70;;;;;;;;;;5013166;28;20029;-50
2021/04/10 08:36:57;;;;;;;1.48;1.00;;;;;;;;;;5012771;28;20034;-51
2021/04/10 08:39:27;;;;;;;2.30;1.02;;;;;;;;;;5012827;28;20045;-49
2021/04/10 08:41:55;;;;;;;2.58;1.00;;;;;;;;;;5013131;28;20018;-52
2021/04/10 08:44:24;;;;;;;2.53;0.90;;;;;;;;;;5013059;28;20466;-51
2021/04/10 08:46:51;;;;;;;1.52;1.00;;;;;;;;;;5015482;28;20053;-51
2021/04/10 08:49:20;;;;;;;1.60;0.80;;;;;;;;;;5016672;28;20018;-51
2021/04/10 08:51:48;;;;;;;1.85;0.95;;;;;;;;;;5016781;28;20091;-51
2021/04/10 08:54:15;;;;;;;1.80;0.77;;;;;;;;;;5016791;28;20033;-50
2021/04/10 08:56:42;;;;;;;1.42;0.63;;;;;;;;;;5016606;28;20030;-49
2021/04/10 08:59:10;;;;;;;1.08;0.70;;;;;;;;;;5016720;28;20113;-52
2021/04/10 09:01:39;;;;;;;1.95;0.75;;;;;;;;;;5015300;28;20024;-53
2021/04/10 09:04:06;;;;;;;1.70;0.70;;;;;;;;;;5016500;28;20478;-54
2021/04/10 09:06:34;;;;;;;1.05;0.68;;;;;;;;;;5016617;28;20029;-50
2021/04/10 09:09:13;;;;;;;1.85;1.00;;;;;;;;;;5016408;28;20022;-51
2021/04/10 09:11:40;;;;;;;0.98;0.70;;;;;;;;;;5016319;28;20040;-52
2021/04/10 09:14:07;;;;;;;1.73;0.80;;;;;;;;;;5016366;28;20049;-50
2021/04/10 09:16:38;;;;;;;1.60;0.80;;;;;;;;;;5016325;28;20374;-50
2021/04/10 09:19:16;;;;;;;1.17;0.75;;;;;;;;;;5016165;28;20355;-52
2021/04/10 09:21:43;;;;;;;0.98;0.70;;;;;;;;;;5016214;28;20053;-51
2021/04/10 09:24:27;;;;;;;1.15;0.77;;;;;;;;;;5016185;28;20497;-50
2021/04/10 09:27:04;;;;;;;1.83;0.70;;;;;;;;;;5016081;28;20026;-53
2021/04/10 09:29:51;;;;;;;2.05;0.90;;;;;;;;;;5016147;28;20429;-48
2021/04/10 09:32:34;;;;;;;1.60;0.80;;;;;;;;;;5015946;28;20042;-52
2021/04/10 09:35:05;;;;;;;1.08;0.63;;;;;;;;;;5016501;28;20429;-51
2021/04/10 09:37:32;;;;;;;1.70;1.08;;;;;;;;;;5016257;28;20045;-49
2021/04/10 09:40:00;;;;;;;2.33;0.85;;;;;;;;;;5015844;28;20053;-49
2021/04/10 09:42:33;;;;;;;1.80;0.80;;;;;;;;;;5015853;28;20018;-53
2021/04/10 09:45:10;;;;;;;2.22;0.90;;;;;;;;;;5015986;28;20033;-53
2021/04/10 09:48:02;;;;;;;1.65;0.90;;;;;;;;;;5015897;28;20022;-53
2021/04/10 09:50:41;;;;;;;1.80;0.90;;;;;;;;;;5015841;28;20034;-53
2021/04/10 09:53:08;;;;;;;2.25;0.73;;;;;;;;;;5015642;28;20044;-54
2021/04/10 09:55:36;;;;;;;1.70;0.80;;;;;;;;;;5015568;28;20030;-51
2021/04/10 09:58:07;;;;;;;2.25;0.70;;;;;;;;;;5014373;28;20386;-52
2021/04/10 10:00:38;;;;;;;1.98;1.00;;;;;;;;;;5015570;28;20022;-54
2021/04/10 10:03:07;;;;;;;1.73;0.93;;;;;;;;;;5015500;28;20466;-54
2021/04/10 10:05:36;;;;;;;1.23;0.57;;;;;;;;;;5015290;28;20442;-53
2021/04/10 10:08:04;;;;;;;1.52;0.82;;;;;;;;;;5015470;28;20046;-53
2021/04/10 10:10:37;;;;;;;2.55;0.75;;;;;;;;;;5015424;28;20483;-53
2021/04/10 10:13:05;;;;;;;1.30;0.68;;;;;;;;;;5015157;28;20511;-52
2021/04/10 10:15:33;;;;;;;1.30;0.63;;;;;;;;;;5015225;28;20053;-52
2021/04/10 10:18:13;;;;;;;3.88;0.90;;;;;;;;;;5015278;28;20046;-52
2021/04/10 10:20:40;;;;;;;0.93;0.60;;;;;;;;;;5015299;28;20477;-53
2021/04/10 10:23:17;;;;;;;1.23;0.70;;;;;;;;;;5014734;28;20045;-53
2021/04/10 10:25:44;;;;;;;2.80;0.70;;;;;;;;;;5014911;28;20482;-53
2021/04/10 10:28:15;;;;;;;0.95;0.63;;;;;;;;;;5014987;28;20422;-53
2021/04/10 10:30:42;;;;;;;2.95;0.70;;;;;;;;;;5015110;28;20109;-54
2021/04/10 10:33:09;;;;;;;1.73;0.75;;;;;;;;;;5014624;28;20449;-54
2021/04/10 10:35:37;;;;;;;1.30;0.80;;;;;;;;;;5014287;28;20029;-47
2021/04/10 10:38:08;;;;;;;1.70;0.77;;;;;;;;;;5010089;28;20129;-49
2021/04/10 10:40:35;;;;;;;1.25;0.57;;;;;;;;;;5013754;28;20097;-52
2021/04/10 10:43:03;;;;;;;1.02;0.73;;;;;;;;;;5014239;28;20014;-53
2021/04/10 10:45:49;;;;;;;1.63;0.80;;;;;;;;;;5010900;28;20033;-48
2021/04/10 10:48:27;;;;;;;2.25;1.15;;;;;;;;;;4996112;28;20068;-53
2021/04/10 10:51:00;;;;;;;1.92;0.60;;;;;;;;;;4996613;28;20363;-50
2021/04/10 10:53:28;;;;;;;2.47;0.85;;;;;;;;;;5009614;28;20048;-51
2021/04/10 10:56:13;;;;;;;2.08;1.00;;;;;;;;;;5013733;28;20026;-50
2021/04/10 10:58:49;;;;;;;2.90;0.90;;;;;;;;;;5011596;28;20452;-53
2021/04/10 11:01:16;;;;;;;1.30;0.73;;;;;;;;;;5003866;28;20057;-50
2021/04/10 11:03:49;;;;;;;1.65;0.73;;;;;;;;;;4997763;28;20066;-49
2021/04/10 11:06:17;;;;;;;1.95;0.70;;;;;;;;;;4995817;28;20089;-47
2021/04/10 11:08:44;;;;;;;0.95;0.80;;;;;;;;;;4995121;28;20088;-50
2021/04/10 11:11:12;;;;;;;3.20;1.00;;;;;;;;;;5001578;28;20157;-49
2021/04/10 11:13:41;;;;;;;3.22;0.93;;;;;;;;;;5002328;28;20041;-49
2021/04/10 11:16:08;;;;;;;1.70;0.90;;;;;;;;;;5008788;28;20014;-48
2021/04/10 11:18:37;;;;;;;2.88;1.05;;;;;;;;;;5009524;28;20096;-47
2021/04/10 11:21:15;;;;;;;4.57;0.85;;;;;;;;;;4997614;28;20425;-53
2021/04/10 11:23:57;;;;;;;2.13;0.80;;;;;;;;;;5029931;28;20055;-52
2021/04/10 11:26:44;;;;;;;2.58;1.25;;;;;;;;;;5032127;28;20112;-52
2021/04/10 11:29:16;;;;;;;4.57;0.80;;;;;;;;;;5033382;28;20033;-53
2021/04/10 11:32:06;;;;;;;3.05;0.82;;;;;;;;;;5033220;28;20036;-51
2021/04/10 11:34:37;;;;;;;4.50;1.33;;;;;;;;;;5025672;28;20034;-49
2021/04/10 11:37:05;;;;;;;6.32;1.40;;;;;;;;;;5033253;28;20048;-54
2021/04/10 11:39:47;;;;;;;3.90;0.90;;;;;;;;;;5033249;28;20034;-53
2021/04/10 11:42:23;;;;;;;2.88;1.00;;;;;;;;;;5033281;28;20028;-54
2021/04/10 11:44:50;;;;;;;2.28;0.82;;;;;;;;;;5033169;28;20022;-54
2021/04/10 11:47:21;;;;;;;3.08;0.90;;;;;;;;;;5033101;28;20076;-51
2021/04/10 11:49:48;;;;;;;4.35;1.20;;;;;;;;;;5033045;28;20025;-54
2021/04/10 11:52:16;;;;;;;5.00;1.20;;;;;;;;;;5032858;28;20034;-52
2021/04/10 11:54:43;;;;;;;7.18;1.20;;;;;;;;;;5032947;28;20021;-54
2021/04/10 11:57:27;;;;;;;3.33;0.80;;;;;;;;;;5033069;28;20028;-50
2021/04/10 12:00:14;;;;;;;2.30;1.05;;;;;;;;;;5032910;28;20033;-52
2021/04/10 12:02:45;;;;;;;2.35;0.93;;;;;;;;;;5033008;28;20438;-48
2021/04/10 12:05:25;;;;;;;2.08;0.60;;;;;;;;;;5033067;28;20025;-48
2021/04/10 12:08:09;;;;;;;3.45;1.52;;;;;;;;;;5032885;28;20037;-49
2021/04/10 12:10:40;;;;;;;2.03;0.98;;;;;;;;;;5032682;28;20182;-51
2021/04/10 12:13:07;;;;;;;2.58;0.82;;;;;;;;;;5032627;28;20072;-55
2021/04/10 12:15:35;;;;;;;1.40;0.70;;;;;;;;;;5032717;28;20406;-53
2021/04/10 12:18:02;;;;;;;4.93;1.10;;;;;;;;;;5032798;28;20092;-54
2021/04/10 12:20:29;;;;;;;5.32;0.90;;;;;;;;;;5032186;28;20017;-53
2021/04/10 12:22:56;;;;;;;2.95;0.70;;;;;;;;;;5032569;28;20029;-53
2021/04/10 12:25:23;;;;;;;3.47;0.80;;;;;;;;;;5032498;28;20123;-53
2021/04/10 12:27:50;;;;;;;2.05;1.10;;;;;;;;;;5032511;28;20029;-53
2021/04/10 12:30:18;;;;;;;1.48;0.77;;;;;;;;;;5032623;28;20021;-54
2021/04/10 12:32:45;;;;;;;2.33;0.90;;;;;;;;;;5032569;28;20034;-53
2021/04/10 12:35:13;;;;;;;5.55;0.82;;;;;;;;;;5032333;28;20424;-54
2021/04/10 12:37:40;;;;;;;2.17;0.90;;;;;;;;;;5032513;28;20025;-52
2021/04/10 12:40:07;;;;;;;3.40;0.88;;;;;;;;;;5032452;28;20048;-52
2021/04/10 12:42:34;;;;;;;1.92;0.95;;;;;;;;;;5032336;28;20481;-54
2021/04/10 12:45:02;;;;;;;2.25;0.77;;;;;;;;;;5032264;28;20120;-53
2021/04/10 12:47:29;;;;;;;2.45;0.80;;;;;;;;;;5032459;28;20045;-53
2021/04/10 12:49:56;;;;;;;1.05;0.77;;;;;;;;;;5032250;28;20026;-54
2021/04/10 12:52:23;;;;;;;2.38;0.80;;;;;;;;;;5032113;28;20485;-52
2021/04/10 12:54:50;;;;;;;1.95;0.70;;;;;;;;;;5032433;28;20029;-54
2021/04/10 12:57:17;;;;;;;2.15;1.00;;;;;;;;;;5032188;28;20405;-52
2021/04/10 12:59:44;;;;;;;2.75;0.60;;;;;;;;;;5032237;28;20476;-53
2021/04/10 13:02:11;;;;;;;2.70;0.70;;;;;;;;;;5032360;28;20402;-51
2021/04/10 13:04:38;;;;;;;2.78;0.90;;;;;;;;;;5032246;28;20025;-52
2021/04/10 13:07:05;;;;;;;2.42;0.70;;;;;;;;;;5032196;28;20025;-53
2021/04/10 13:09:32;;;;;;;3.88;0.90;;;;;;;;;;5030929;28;20430;-53
2021/04/10 13:11:59;;;;;;;1.45;0.60;;;;;;;;;;5030768;28;20036;-51
2021/04/10 13:14:27;;;;;;;0.95;0.70;;;;;;;;;;5032058;28;20525;-51
2021/04/10 13:16:57;;;;;;;2.00;0.80;;;;;;;;;;5032204;28;20159;-54
2021/04/10 13:19:24;;;;;;;3.13;0.90;;;;;;;;;;5032093;28;20044;-52
2021/04/10 13:21:51;;;;;;;1.92;0.93;;;;;;;;;;5031911;28;20025;-52
2021/04/10 13:24:19;;;;;;;1.05;0.80;;;;;;;;;;5031703;28;20050;-53
2021/04/10 13:26:47;;;;;;;1.75;0.70;;;;;;;;;;5032209;28;20018;-53
2021/04/10 13:29:14;;;;;;;1.48;0.63;;;;;;;;;;5031916;28;20029;-54
2021/04/10 13:31:44;;;;;;;1.85;0.85;;;;;;;;;;5032523;28;20037;-52
2021/04/10 13:34:13;;;;;;;1.58;0.80;;;;;;;;;;5035735;28;20024;-50
2021/04/10 13:36:40;;;;;;;1.83;0.80;;;;;;;;;;5035399;28;20044;-51
2021/04/10 13:39:08;;;;;;;1.60;0.90;;;;;;;;;;5035250;28;20037;-53
2021/04/10 13:41:36;;;;;;;3.20;1.10;;;;;;;;;;5035636;28;20025;-52
2021/04/10 13:44:04;;;;;;;1.98;0.70;;;;;;;;;;5035363;28;20385;-52
2021/04/10 13:46:32;;;;;;;1.67;0.57;;;;;;;;;;5035318;28;20097;-52
2021/04/10 13:48:59;;;;;;;1.65;0.73;;;;;;;;;;5035382;28;20037;-52
2021/04/10 13:51:26;;;;;;;2.15;0.90;;;;;;;;;;5035145;28;20358;-53
2021/04/10 13:53:54;;;;;;;1.13;0.77;;;;;;;;;;5035033;28;20061;-52
2021/04/10 13:56:21;;;;;;;1.65;0.70;;;;;;;;;;5035290;28;20030;-53
2021/04/10 13:58:48;;;;;;;1.85;0.93;;;;;;;;;;5035151;28;20029;-51
2021/04/10 14:01:15;;;;;;;2.75;1.00;;;;;;;;;;5034967;28;20052;-49
2021/04/10 14:03:43;;;;;;;2.83;0.63;;;;;;;;;;5035141;28;20100;-53
2021/04/10 14:06:14;;;;;;;1.83;0.77;;;;;;;;;;5020249;28;20095;-51
2021/04/10 14:08:41;;;;;;;3.17;0.70;;;;;;;;;;5014958;28;20030;-48
2021/04/10 14:11:08;;;;;;;1.65;0.80;;;;;;;;;;5014364;28;20018;-50
2021/04/10 14:13:36;;;;;;;5.57;0.77;;;;;;;;;;5011765;28;20092;-51
2021/04/10 14:16:03;;;;;;;6.10;0.93;;;;;;;;;;5009094;28;20548;-48
2021/04/10 14:18:30;;;;;;;10.63;1.30;;;;;;;;;;4997435;28;20061;-50
2021/04/10 14:20:58;;;;;;;3.92;1.00;;;;;;;;;;4993818;28;20443;-47
2021/04/10 14:23:28;;;;;;;11.07;0.98;;;;;;;;;;5008028;28;20101;-47
2021/04/10 14:25:55;;;;;;;20.85;2.03;;;;;;;;;;5009972;28;20022;-47
2021/04/10 14:28:23;;;;;;;10.50;1.13;;;;;;;;;;4997871;28;20042;-51
2021/04/10 14:30:50;;;;;;;10.75;1.30;;;;;;;;;;5005391;28;20442;-49
2021/04/10 14:33:17;;;;;;;5.72;1.23;;;;;;;;;;5013877;28;20485;-48
2021/04/10 14:35:46;;;;;;;12.52;1.45;;;;;;;;;;4995122;28;20022;-50
2021/04/10 14:38:13;;;;;;;11.55;1.20;;;;;;;;;;4994762;28;20084;-50
2021/04/10 14:40:40;;;;;;;10.80;1.25;;;;;;;;;;4994432;28;20018;-55
2021/04/10 14:43:10;;;;;;;11.13;1.58;;;;;;;;;;4997389;28;20025;-48
2021/04/10 14:45:38;;;;;;;12.27;1.40;;;;;;;;;;4997097;28;20128;-49
2021/04/10 14:48:05;;;;;;;21.33;1.85;;;;;;;;;;5009820;28;20018;-50
2021/04/10 14:50:32;;;;;;;16.10;1.50;;;;;;;;;;5009119;28;20041;-48
2021/04/10 14:53:00;;;;;;;10.15;1.58;;;;;;;;;;5012158;28;20034;-47